sensor_id;sensor_type;location;lat;lon;timestamp;P1;durP1;ratioP1;P2;durP2;ratioP2
23802;SDS011;12082;51.786;6.018;2024-02-14T00:00:17;9.03;;;5.77;;
23802;SDS011;12082;51.786;6.018;2024-02-14T00:02:43;5.13;;;4.00;;
23802;SDS011;12082;51.786;6.018;2024-02-14T00:05:09;6.80;;;5.17;;
23802;SDS011;12082;51.786;6.018;2024-02-14T00:07:38;7.60;;;5.93;;
23802;SDS011;12082;51.786;6.018;2024-02-14T00:10:07;9.23;;;5.43;;
23802;SDS011;12082;51.786;6.018;2024-02-14T00:12:33;7.43;;;5.50;;
23802;SDS011;12082;51.786;6.018;2024-02-14T00:15:00;7.03;;;5.70;;
23802;SDS011;12082;51.786;6.018;2024-02-14T00:17:26;7.87;;;6.13;;
23802;SDS011;12082;51.786;6.018;2024-02-14T00:19:51;7.30;;;5.60;;
23802;SDS011;12082;51.786;6.018;2024-02-14T00:22:17;8.90;;;5.63;;
23802;SDS011;12082;51.786;6.018;2024-02-14T00:24:43;7.63;;;5.70;;
23802;SDS011;12082;51.786;6.018;2024-02-14T00:27:08;9.57;;;5.47;;
23802;SDS011;12082;51.786;6.018;2024-02-14T00:29:34;12.23;;;5.90;;
23802;SDS011;12082;51.786;6.018;2024-02-14T00:32:00;9.60;;;5.87;;
23802;SDS011;12082;51.786;6.018;2024-02-14T00:34:26;11.07;;;5.77;;
23802;SDS011;12082;51.786;6.018;2024-02-14T00:36:52;7.13;;;5.70;;
23802;SDS011;12082;51.786;6.018;2024-02-14T00:39:17;7.77;;;5.80;;
23802;SDS011;12082;51.786;6.018;2024-02-14T00:41:43;7.77;;;5.70;;
23802;SDS011;12082;51.786;6.018;2024-02-14T00:44:11;11.00;;;6.63;;
23802;SDS011;12082;51.786;6.018;2024-02-14T00:46:36;8.90;;;6.40;;
23802;SDS011;12082;51.786;6.018;2024-02-14T00:49:02;6.77;;;5.37;;
23802;SDS011;12082;51.786;6.018;2024-02-14T00:51:27;8.57;;;5.87;;
23802;SDS011;12082;51.786;6.018;2024-02-14T00:53:53;7.70;;;5.60;;
23802;SDS011;12082;51.786;6.018;2024-02-14T00:56:19;6.73;;;4.70;;
23802;SDS011;12082;51.786;6.018;2024-02-14T00:58:44;8.77;;;5.10;;
23802;SDS011;12082;51.786;6.018;2024-02-14T01:01:10;5.70;;;4.90;;
23802;SDS011;12082;51.786;6.018;2024-02-14T01:03:37;7.63;;;5.83;;
23802;SDS011;12082;51.786;6.018;2024-02-14T01:06:02;5.43;;;4.77;;
23802;SDS011;12082;51.786;6.018;2024-02-14T01:08:28;5.80;;;4.63;;
23802;SDS011;12082;51.786;6.018;2024-02-14T01:10:54;8.00;;;5.20;;
23802;SDS011;12082;51.786;6.018;2024-02-14T01:13:19;5.73;;;4.47;;
23802;SDS011;12082;51.786;6.018;2024-02-14T01:15:45;5.73;;;4.63;;
23802;SDS011;12082;51.786;6.018;2024-02-14T01:18:10;5.20;;;4.80;;
23802;SDS011;12082;51.786;6.018;2024-02-14T01:20:36;6.53;;;4.73;;
23802;SDS011;12082;51.786;6.018;2024-02-14T01:23:02;8.20;;;5.33;;
23802;SDS011;12082;51.786;6.018;2024-02-14T01:25:28;5.60;;;5.07;;
23802;SDS011;12082;51.786;6.018;2024-02-14T01:27:54;6.50;;;5.00;;
23802;SDS011;12082;51.786;6.018;2024-02-14T01:30:20;7.73;;;4.97;;
23802;SDS011;12082;51.786;6.018;2024-02-14T01:32:45;6.77;;;4.87;;
23802;SDS011;12082;51.786;6.018;2024-02-14T01:35:11;5.20;;;4.70;;
23802;SDS011;12082;51.786;6.018;2024-02-14T01:37:38;6.33;;;4.87;;
23802;SDS011;12082;51.786;6.018;2024-02-14T01:40:04;6.17;;;5.23;;
23802;SDS011;12082;51.786;6.018;2024-02-14T01:42:32;6.93;;;5.13;;
23802;SDS011;12082;51.786;6.018;2024-02-14T01:44:58;7.87;;;5.27;;
23802;SDS011;12082;51.786;6.018;2024-02-14T01:47:24;6.63;;;5.60;;
23802;SDS011;12082;51.786;6.018;2024-02-14T01:49:49;6.67;;;5.00;;
23802;SDS011;12082;51.786;6.018;2024-02-14T01:52:15;8.93;;;5.77;;
23802;SDS011;12082;51.786;6.018;2024-02-14T01:54:41;8.47;;;5.27;;
23802;SDS011;12082;51.786;6.018;2024-02-14T01:57:07;6.53;;;5.40;;
23802;SDS011;12082;51.786;6.018;2024-02-14T01:59:33;6.17;;;5.40;;
23802;SDS011;12082;51.786;6.018;2024-02-14T02:02:00;5.23;;;4.50;;
23802;SDS011;12082;51.786;6.018;2024-02-14T02:04:26;6.30;;;4.53;;
23802;SDS011;12082;51.786;6.018;2024-02-14T02:06:51;10.87;;;4.87;;
23802;SDS011;12082;51.786;6.018;2024-02-14T02:09:21;5.00;;;4.47;;
23802;SDS011;12082;51.786;6.018;2024-02-14T02:11:48;9.40;;;5.57;;
23802;SDS011;12082;51.786;6.018;2024-02-14T02:14:14;9.50;;;5.27;;
23802;SDS011;12082;51.786;6.018;2024-02-14T02:16:41;10.73;;;5.17;;
23802;SDS011;12082;51.786;6.018;2024-02-14T02:19:07;7.00;;;5.13;;
23802;SDS011;12082;51.786;6.018;2024-02-14T02:21:34;6.10;;;5.20;;
23802;SDS011;12082;51.786;6.018;2024-02-14T02:24:01;9.53;;;5.30;;
23802;SDS011;12082;51.786;6.018;2024-02-14T02:26:27;9.53;;;5.47;;
23802;SDS011;12082;51.786;6.018;2024-02-14T02:28:52;9.33;;;5.27;;
23802;SDS011;12082;51.786;6.018;2024-02-14T02:31:19;6.60;;;5.30;;
23802;SDS011;12082;51.786;6.018;2024-02-14T02:33:45;8.67;;;4.97;;
23802;SDS011;12082;51.786;6.018;2024-02-14T02:36:11;6.30;;;4.57;;
23802;SDS011;12082;51.786;6.018;2024-02-14T02:38:36;7.73;;;5.00;;
23802;SDS011;12082;51.786;6.018;2024-02-14T02:41:03;5.70;;;4.93;;
23802;SDS011;12082;51.786;6.018;2024-02-14T02:43:31;6.43;;;4.60;;
23802;SDS011;12082;51.786;6.018;2024-02-14T02:45:57;8.53;;;5.63;;
23802;SDS011;12082;51.786;6.018;2024-02-14T02:48:23;7.23;;;5.43;;
23802;SDS011;12082;51.786;6.018;2024-02-14T02:50:49;5.33;;;4.33;;
23802;SDS011;12082;51.786;6.018;2024-02-14T02:53:15;8.77;;;5.47;;
23802;SDS011;12082;51.786;6.018;2024-02-14T02:55:41;7.10;;;5.47;;
23802;SDS011;12082;51.786;6.018;2024-02-14T02:58:07;4.97;;;4.47;;
23802;SDS011;12082;51.786;6.018;2024-02-14T03:00:33;9.10;;;5.17;;
23802;SDS011;12082;51.786;6.018;2024-02-14T03:02:58;6.40;;;4.50;;
23802;SDS011;12082;51.786;6.018;2024-02-14T03:05:24;11.40;;;4.87;;
23802;SDS011;12082;51.786;6.018;2024-02-14T03:07:50;9.20;;;5.17;;
23802;SDS011;12082;51.786;6.018;2024-02-14T03:10:17;7.17;;;5.07;;
23802;SDS011;12082;51.786;6.018;2024-02-14T03:12:49;7.03;;;5.27;;
23802;SDS011;12082;51.786;6.018;2024-02-14T03:15:15;6.03;;;4.47;;
23802;SDS011;12082;51.786;6.018;2024-02-14T03:17:41;5.30;;;4.27;;
23802;SDS011;12082;51.786;6.018;2024-02-14T03:20:10;9.23;;;4.37;;
23802;SDS011;12082;51.786;6.018;2024-02-14T03:22:40;7.57;;;5.33;;
23802;SDS011;12082;51.786;6.018;2024-02-14T03:25:18;8.67;;;4.43;;
23802;SDS011;12082;51.786;6.018;2024-02-14T03:27:45;6.27;;;5.13;;
23802;SDS011;12082;51.786;6.018;2024-02-14T03:30:17;9.73;;;5.33;;
23802;SDS011;12082;51.786;6.018;2024-02-14T03:32:43;5.43;;;4.50;;
23802;SDS011;12082;51.786;6.018;2024-02-14T03:35:09;7.27;;;5.70;;
23802;SDS011;12082;51.786;6.018;2024-02-14T03:37:36;6.07;;;5.10;;
23802;SDS011;12082;51.786;6.018;2024-02-14T03:40:04;9.57;;;4.70;;
23802;SDS011;12082;51.786;6.018;2024-02-14T03:42:31;7.40;;;5.43;;
23802;SDS011;12082;51.786;6.018;2024-02-14T03:44:57;10.53;;;5.60;;
23802;SDS011;12082;51.786;6.018;2024-02-14T03:47:28;10.60;;;5.40;;
23802;SDS011;12082;51.786;6.018;2024-02-14T03:49:56;9.53;;;4.60;;
23802;SDS011;12082;51.786;6.018;2024-02-14T03:52:21;7.40;;;5.33;;
23802;SDS011;12082;51.786;6.018;2024-02-14T03:54:47;7.70;;;5.37;;
23802;SDS011;12082;51.786;6.018;2024-02-14T03:57:13;10.13;;;5.63;;
23802;SDS011;12082;51.786;6.018;2024-02-14T03:59:39;6.30;;;5.20;;
23802;SDS011;12082;51.786;6.018;2024-02-14T04:02:05;5.60;;;4.73;;
23802;SDS011;12082;51.786;6.018;2024-02-14T04:04:34;6.30;;;4.60;;
23802;SDS011;12082;51.786;6.018;2024-02-14T04:07:04;10.23;;;4.93;;
23802;SDS011;12082;51.786;6.018;2024-02-14T04:09:32;8.43;;;5.33;;
23802;SDS011;12082;51.786;6.018;2024-02-14T04:11:58;6.67;;;5.67;;
23802;SDS011;12082;51.786;6.018;2024-02-14T04:14:23;10.17;;;5.63;;
23802;SDS011;12082;51.786;6.018;2024-02-14T04:16:49;8.60;;;4.90;;
23802;SDS011;12082;51.786;6.018;2024-02-14T04:19:14;7.63;;;5.00;;
23802;SDS011;12082;51.786;6.018;2024-02-14T04:21:42;8.90;;;5.50;;
23802;SDS011;12082;51.786;6.018;2024-02-14T04:24:08;8.97;;;5.93;;
23802;SDS011;12082;51.786;6.018;2024-02-14T04:26:34;8.63;;;5.80;;
23802;SDS011;12082;51.786;6.018;2024-02-14T04:28:59;7.67;;;5.60;;
23802;SDS011;12082;51.786;6.018;2024-02-14T04:31:25;11.23;;;5.37;;
23802;SDS011;12082;51.786;6.018;2024-02-14T04:33:51;8.00;;;5.07;;
23802;SDS011;12082;51.786;6.018;2024-02-14T04:36:18;5.90;;;5.30;;
23802;SDS011;12082;51.786;6.018;2024-02-14T04:38:50;9.37;;;5.90;;
23802;SDS011;12082;51.786;6.018;2024-02-14T04:41:20;9.63;;;6.17;;
23802;SDS011;12082;51.786;6.018;2024-02-14T04:43:46;9.23;;;5.57;;
23802;SDS011;12082;51.786;6.018;2024-02-14T04:46:12;9.37;;;6.00;;
23802;SDS011;12082;51.786;6.018;2024-02-14T04:48:38;11.73;;;6.10;;
23802;SDS011;12082;51.786;6.018;2024-02-14T04:51:04;8.00;;;6.93;;
23802;SDS011;12082;51.786;6.018;2024-02-14T04:53:30;9.23;;;5.97;;
23802;SDS011;12082;51.786;6.018;2024-02-14T04:55:56;12.90;;;6.73;;
23802;SDS011;12082;51.786;6.018;2024-02-14T04:58:22;9.33;;;5.07;;
23802;SDS011;12082;51.786;6.018;2024-02-14T05:00:48;9.83;;;5.50;;
23802;SDS011;12082;51.786;6.018;2024-02-14T05:03:13;11.57;;;6.10;;
23802;SDS011;12082;51.786;6.018;2024-02-14T05:05:39;9.73;;;7.07;;
23802;SDS011;12082;51.786;6.018;2024-02-14T05:08:05;7.20;;;6.00;;
23802;SDS011;12082;51.786;6.018;2024-02-14T05:10:31;9.80;;;6.20;;
23802;SDS011;12082;51.786;6.018;2024-02-14T05:12:57;10.83;;;7.03;;
23802;SDS011;12082;51.786;6.018;2024-02-14T05:15:23;9.57;;;6.37;;
23802;SDS011;12082;51.786;6.018;2024-02-14T05:17:48;10.07;;;6.10;;
23802;SDS011;12082;51.786;6.018;2024-02-14T05:20:15;10.27;;;7.07;;
23802;SDS011;12082;51.786;6.018;2024-02-14T05:22:43;13.90;;;7.53;;
23802;SDS011;12082;51.786;6.018;2024-02-14T05:25:09;12.57;;;6.87;;
23802;SDS011;12082;51.786;6.018;2024-02-14T05:27:35;12.10;;;6.60;;
23802;SDS011;12082;51.786;6.018;2024-02-14T05:30:02;11.17;;;6.53;;
23802;SDS011;12082;51.786;6.018;2024-02-14T05:32:31;10.17;;;6.73;;
23802;SDS011;12082;51.786;6.018;2024-02-14T05:34:57;8.53;;;6.63;;
23802;SDS011;12082;51.786;6.018;2024-02-14T05:37:23;12.13;;;7.80;;
23802;SDS011;12082;51.786;6.018;2024-02-14T05:39:49;11.97;;;8.17;;
23802;SDS011;12082;51.786;6.018;2024-02-14T05:42:14;11.00;;;7.67;;
23802;SDS011;12082;51.786;6.018;2024-02-14T05:44:41;11.70;;;7.97;;
23802;SDS011;12082;51.786;6.018;2024-02-14T05:47:08;15.63;;;7.33;;
23802;SDS011;12082;51.786;6.018;2024-02-14T05:49:34;12.23;;;7.63;;
23802;SDS011;12082;51.786;6.018;2024-02-14T05:51:59;12.40;;;7.43;;
23802;SDS011;12082;51.786;6.018;2024-02-14T05:54:25;11.43;;;7.93;;
23802;SDS011;12082;51.786;6.018;2024-02-14T05:56:51;11.80;;;7.43;;
23802;SDS011;12082;51.786;6.018;2024-02-14T05:59:16;12.00;;;7.63;;
23802;SDS011;12082;51.786;6.018;2024-02-14T06:01:42;14.10;;;8.67;;
23802;SDS011;12082;51.786;6.018;2024-02-14T06:04:07;13.07;;;8.07;;
23802;SDS011;12082;51.786;6.018;2024-02-14T06:06:33;12.20;;;7.77;;
23802;SDS011;12082;51.786;6.018;2024-02-14T06:08:59;12.37;;;8.13;;
23802;SDS011;12082;51.786;6.018;2024-02-14T06:11:24;12.13;;;8.00;;
23802;SDS011;12082;51.786;6.018;2024-02-14T06:13:50;14.50;;;8.50;;
23802;SDS011;12082;51.786;6.018;2024-02-14T06:16:16;10.60;;;7.87;;
23802;SDS011;12082;51.786;6.018;2024-02-14T06:18:41;17.03;;;8.53;;
23802;SDS011;12082;51.786;6.018;2024-02-14T06:21:07;14.70;;;8.63;;
23802;SDS011;12082;51.786;6.018;2024-02-14T06:23:33;15.27;;;8.23;;
23802;SDS011;12082;51.786;6.018;2024-02-14T06:25:59;16.30;;;9.20;;
23802;SDS011;12082;51.786;6.018;2024-02-14T06:28:25;11.77;;;8.60;;
23802;SDS011;12082;51.786;6.018;2024-02-14T06:30:50;13.90;;;8.80;;
23802;SDS011;12082;51.786;6.018;2024-02-14T06:33:16;11.57;;;8.53;;
23802;SDS011;12082;51.786;6.018;2024-02-14T06:35:42;11.57;;;8.90;;
23802;SDS011;12082;51.786;6.018;2024-02-14T06:38:07;12.83;;;8.90;;
23802;SDS011;12082;51.786;6.018;2024-02-14T06:40:33;16.73;;;9.10;;
23802;SDS011;12082;51.786;6.018;2024-02-14T06:42:59;16.40;;;10.30;;
23802;SDS011;12082;51.786;6.018;2024-02-14T06:45:25;14.60;;;9.77;;
23802;SDS011;12082;51.786;6.018;2024-02-14T06:47:52;13.93;;;9.73;;
23802;SDS011;12082;51.786;6.018;2024-02-14T06:50:19;12.77;;;9.67;;
23802;SDS011;12082;51.786;6.018;2024-02-14T06:52:44;17.83;;;11.67;;
23802;SDS011;12082;51.786;6.018;2024-02-14T06:55:10;17.83;;;10.97;;
23802;SDS011;12082;51.786;6.018;2024-02-14T06:57:35;17.30;;;10.20;;
23802;SDS011;12082;51.786;6.018;2024-02-14T07:00:02;15.13;;;10.80;;
23802;SDS011;12082;51.786;6.018;2024-02-14T07:02:32;17.93;;;11.10;;
23802;SDS011;12082;51.786;6.018;2024-02-14T07:04:57;14.13;;;9.90;;
23802;SDS011;12082;51.786;6.018;2024-02-14T07:07:23;14.03;;;11.03;;
23802;SDS011;12082;51.786;6.018;2024-02-14T07:09:48;15.83;;;10.00;;
23802;SDS011;12082;51.786;6.018;2024-02-14T07:12:14;14.73;;;10.80;;
23802;SDS011;12082;51.786;6.018;2024-02-14T07:14:40;16.03;;;10.07;;
23802;SDS011;12082;51.786;6.018;2024-02-14T07:17:06;16.07;;;9.97;;
23802;SDS011;12082;51.786;6.018;2024-02-14T07:19:32;14.70;;;11.33;;
23802;SDS011;12082;51.786;6.018;2024-02-14T07:21:57;20.30;;;11.83;;
23802;SDS011;12082;51.786;6.018;2024-02-14T07:24:23;19.73;;;11.80;;
23802;SDS011;12082;51.786;6.018;2024-02-14T07:26:48;18.30;;;11.57;;
23802;SDS011;12082;51.786;6.018;2024-02-14T07:29:14;14.77;;;10.50;;
23802;SDS011;12082;51.786;6.018;2024-02-14T07:31:39;18.67;;;11.70;;
23802;SDS011;12082;51.786;6.018;2024-02-14T07:34:06;19.30;;;11.67;;
23802;SDS011;12082;51.786;6.018;2024-02-14T07:36:32;15.70;;;11.80;;
23802;SDS011;12082;51.786;6.018;2024-02-14T07:38:57;16.97;;;11.67;;
23802;SDS011;12082;51.786;6.018;2024-02-14T07:41:23;15.67;;;11.10;;
23802;SDS011;12082;51.786;6.018;2024-02-14T07:43:49;23.40;;;11.27;;
23802;SDS011;12082;51.786;6.018;2024-02-14T07:46:18;19.20;;;12.27;;
23802;SDS011;12082;51.786;6.018;2024-02-14T07:48:44;16.27;;;11.87;;
23802;SDS011;12082;51.786;6.018;2024-02-14T07:51:10;21.70;;;10.47;;
23802;SDS011;12082;51.786;6.018;2024-02-14T07:53:36;19.37;;;11.50;;
23802;SDS011;12082;51.786;6.018;2024-02-14T07:56:02;17.87;;;11.27;;
23802;SDS011;12082;51.786;6.018;2024-02-14T07:58:28;17.63;;;11.60;;
23802;SDS011;12082;51.786;6.018;2024-02-14T08:00:53;17.40;;;10.90;;
23802;SDS011;12082;51.786;6.018;2024-02-14T08:03:19;18.50;;;11.63;;
23802;SDS011;12082;51.786;6.018;2024-02-14T08:05:44;18.53;;;11.73;;
23802;SDS011;12082;51.786;6.018;2024-02-14T08:08:10;18.03;;;11.43;;
23802;SDS011;12082;51.786;6.018;2024-02-14T08:10:36;14.90;;;10.63;;
23802;SDS011;12082;51.786;6.018;2024-02-14T08:13:01;13.60;;;9.83;;
23802;SDS011;12082;51.786;6.018;2024-02-14T08:15:29;17.90;;;10.23;;
23802;SDS011;12082;51.786;6.018;2024-02-14T08:17:55;18.23;;;10.93;;
23802;SDS011;12082;51.786;6.018;2024-02-14T08:20:21;18.03;;;11.13;;
23802;SDS011;12082;51.786;6.018;2024-02-14T08:22:48;22.37;;;11.53;;
23802;SDS011;12082;51.786;6.018;2024-02-14T08:25:14;17.63;;;11.63;;
23802;SDS011;12082;51.786;6.018;2024-02-14T08:27:40;16.70;;;11.23;;
23802;SDS011;12082;51.786;6.018;2024-02-14T08:30:06;15.90;;;11.80;;
23802;SDS011;12082;51.786;6.018;2024-02-14T08:32:33;17.13;;;11.60;;
23802;SDS011;12082;51.786;6.018;2024-02-14T08:34:59;13.77;;;11.27;;
23802;SDS011;12082;51.786;6.018;2024-02-14T08:37:26;17.73;;;12.10;;
23802;SDS011;12082;51.786;6.018;2024-02-14T08:39:52;18.03;;;12.17;;
23802;SDS011;12082;51.786;6.018;2024-02-14T08:42:18;18.20;;;12.10;;
23802;SDS011;12082;51.786;6.018;2024-02-14T08:44:43;23.17;;;13.40;;
23802;SDS011;12082;51.786;6.018;2024-02-14T08:47:09;21.43;;;13.70;;
23802;SDS011;12082;51.786;6.018;2024-02-14T08:49:35;18.83;;;13.47;;
23802;SDS011;12082;51.786;6.018;2024-02-14T08:52:01;18.53;;;13.30;;
23802;SDS011;12082;51.786;6.018;2024-02-14T08:54:27;22.77;;;14.17;;
23802;SDS011;12082;51.786;6.018;2024-02-14T08:56:53;24.73;;;13.60;;
23802;SDS011;12082;51.786;6.018;2024-02-14T08:59:21;20.67;;;14.87;;
23802;SDS011;12082;51.786;6.018;2024-02-14T09:01:46;21.47;;;14.17;;
23802;SDS011;12082;51.786;6.018;2024-02-14T09:04:13;22.10;;;14.67;;
23802;SDS011;12082;51.786;6.018;2024-02-14T09:06:39;23.87;;;14.30;;
23802;SDS011;12082;51.786;6.018;2024-02-14T09:09:06;21.73;;;13.63;;
23802;SDS011;12082;51.786;6.018;2024-02-14T09:11:35;25.93;;;13.90;;
23802;SDS011;12082;51.786;6.018;2024-02-14T09:14:01;21.70;;;14.47;;
23802;SDS011;12082;51.786;6.018;2024-02-14T09:16:31;25.77;;;15.93;;
23802;SDS011;12082;51.786;6.018;2024-02-14T09:19:00;21.77;;;15.40;;
23802;SDS011;12082;51.786;6.018;2024-02-14T09:21:30;24.63;;;14.93;;
23802;SDS011;12082;51.786;6.018;2024-02-14T09:23:55;24.50;;;13.60;;
23802;SDS011;12082;51.786;6.018;2024-02-14T09:26:21;25.77;;;14.47;;
23802;SDS011;12082;51.786;6.018;2024-02-14T09:28:47;21.73;;;14.23;;
23802;SDS011;12082;51.786;6.018;2024-02-14T09:31:16;19.23;;;13.73;;
23802;SDS011;12082;51.786;6.018;2024-02-14T09:33:47;17.53;;;12.67;;
23802;SDS011;12082;51.786;6.018;2024-02-14T09:36:14;24.63;;;15.23;;
23802;SDS011;12082;51.786;6.018;2024-02-14T09:38:40;20.33;;;14.93;;
23802;SDS011;12082;51.786;6.018;2024-02-14T09:41:19;18.67;;;14.03;;
23802;SDS011;12082;51.786;6.018;2024-02-14T09:43:51;20.87;;;12.63;;
23802;SDS011;12082;51.786;6.018;2024-02-14T09:46:17;19.33;;;13.40;;
23802;SDS011;12082;51.786;6.018;2024-02-14T09:48:43;23.53;;;14.80;;
23802;SDS011;12082;51.786;6.018;2024-02-14T09:51:10;39.47;;;15.53;;
23802;SDS011;12082;51.786;6.018;2024-02-14T09:53:36;21.43;;;13.10;;
23802;SDS011;12082;51.786;6.018;2024-02-14T09:56:03;18.67;;;14.27;;
23802;SDS011;12082;51.786;6.018;2024-02-14T09:58:29;28.30;;;14.40;;
23802;SDS011;12082;51.786;6.018;2024-02-14T10:00:56;23.23;;;14.63;;
23802;SDS011;12082;51.786;6.018;2024-02-14T10:03:22;22.07;;;14.07;;
23802;SDS011;12082;51.786;6.018;2024-02-14T10:05:48;23.57;;;15.83;;
23802;SDS011;12082;51.786;6.018;2024-02-14T10:08:13;25.63;;;13.93;;
23802;SDS011;12082;51.786;6.018;2024-02-14T10:10:40;20.17;;;13.90;;
23802;SDS011;12082;51.786;6.018;2024-02-14T10:13:05;25.20;;;13.03;;
23802;SDS011;12082;51.786;6.018;2024-02-14T10:15:32;21.17;;;13.03;;
23802;SDS011;12082;51.786;6.018;2024-02-14T10:17:58;18.57;;;12.23;;
23802;SDS011;12082;51.786;6.018;2024-02-14T10:20:24;16.30;;;11.77;;
23802;SDS011;12082;51.786;6.018;2024-02-14T10:22:51;18.43;;;12.57;;
23802;SDS011;12082;51.786;6.018;2024-02-14T10:25:25;22.77;;;13.17;;
23802;SDS011;12082;51.786;6.018;2024-02-14T10:27:51;19.47;;;12.90;;
23802;SDS011;12082;51.786;6.018;2024-02-14T10:30:16;22.03;;;11.97;;
23802;SDS011;12082;51.786;6.018;2024-02-14T10:32:42;20.67;;;12.03;;
23802;SDS011;12082;51.786;6.018;2024-02-14T10:35:12;20.90;;;12.33;;
23802;SDS011;12082;51.786;6.018;2024-02-14T10:37:39;19.10;;;12.37;;
23802;SDS011;12082;51.786;6.018;2024-02-14T10:40:05;17.50;;;10.73;;
23802;SDS011;12082;51.786;6.018;2024-02-14T10:42:31;14.97;;;10.47;;
23802;SDS011;12082;51.786;6.018;2024-02-14T10:44:58;18.50;;;11.40;;
23802;SDS011;12082;51.786;6.018;2024-02-14T10:47:24;16.43;;;9.70;;
23802;SDS011;12082;51.786;6.018;2024-02-14T10:50:05;11.47;;;9.13;;
23802;SDS011;12082;51.786;6.018;2024-02-14T10:52:32;13.90;;;9.37;;
23802;SDS011;12082;51.786;6.018;2024-02-14T10:55:02;18.50;;;8.97;;
23802;SDS011;12082;51.786;6.018;2024-02-14T10:57:29;14.10;;;8.87;;
23802;SDS011;12082;51.786;6.018;2024-02-14T10:59:57;18.20;;;8.57;;
23802;SDS011;12082;51.786;6.018;2024-02-14T11:02:26;15.00;;;9.00;;
23802;SDS011;12082;51.786;6.018;2024-02-14T11:04:55;15.13;;;8.73;;
23802;SDS011;12082;51.786;6.018;2024-02-14T11:07:21;16.03;;;9.20;;
23802;SDS011;12082;51.786;6.018;2024-02-14T11:10:05;11.87;;;9.03;;
23802;SDS011;12082;51.786;6.018;2024-02-14T11:12:35;12.63;;;8.47;;
23802;SDS011;12082;51.786;6.018;2024-02-14T11:15:10;13.93;;;9.60;;
23802;SDS011;12082;51.786;6.018;2024-02-14T11:17:38;15.00;;;9.50;;
23802;SDS011;12082;51.786;6.018;2024-02-14T11:20:14;15.37;;;9.17;;
23802;SDS011;12082;51.786;6.018;2024-02-14T11:23:20;11.37;;;9.37;;
23802;SDS011;12082;51.786;6.018;2024-02-14T11:25:38;15.83;;;9.67;;
23802;SDS011;12082;51.786;6.018;2024-02-14T11:28:13;12.00;;;9.57;;
23802;SDS011;12082;51.786;6.018;2024-02-14T11:30:46;11.93;;;8.67;;
23802;SDS011;12082;51.786;6.018;2024-02-14T11:33:13;11.90;;;8.53;;
23802;SDS011;12082;51.786;6.018;2024-02-14T11:35:45;13.97;;;8.50;;
23802;SDS011;12082;51.786;6.018;2024-02-14T11:38:13;15.27;;;9.23;;
23802;SDS011;12082;51.786;6.018;2024-02-14T11:40:39;12.33;;;7.93;;
23802;SDS011;12082;51.786;6.018;2024-02-14T11:43:38;12.90;;;8.20;;
23802;SDS011;12082;51.786;6.018;2024-02-14T11:45:57;13.67;;;8.90;;
23802;SDS011;12082;51.786;6.018;2024-02-14T11:48:22;13.87;;;8.33;;
23802;SDS011;12082;51.786;6.018;2024-02-14T11:50:49;10.90;;;8.27;;
23802;SDS011;12082;51.786;6.018;2024-02-14T11:53:17;11.13;;;8.60;;
23802;SDS011;12082;51.786;6.018;2024-02-14T11:55:44;9.13;;;7.67;;
23802;SDS011;12082;51.786;6.018;2024-02-14T11:58:11;11.67;;;8.30;;
23802;SDS011;12082;51.786;6.018;2024-02-14T12:00:47;10.20;;;7.60;;
23802;SDS011;12082;51.786;6.018;2024-02-14T12:03:17;10.63;;;8.07;;
23802;SDS011;12082;51.786;6.018;2024-02-14T12:05:45;9.10;;;7.27;;
23802;SDS011;12082;51.786;6.018;2024-02-14T12:08:12;7.73;;;6.93;;
23802;SDS011;12082;51.786;6.018;2024-02-14T12:10:38;8.77;;;7.40;;
23802;SDS011;12082;51.786;6.018;2024-02-14T12:13:10;9.90;;;7.03;;
23802;SDS011;12082;51.786;6.018;2024-02-14T12:15:40;10.17;;;6.53;;
23802;SDS011;12082;51.786;6.018;2024-02-14T12:18:10;7.30;;;5.87;;
23802;SDS011;12082;51.786;6.018;2024-02-14T12:20:36;8.00;;;6.30;;
23802;SDS011;12082;51.786;6.018;2024-02-14T12:23:05;7.97;;;5.80;;
23802;SDS011;12082;51.786;6.018;2024-02-14T12:25:31;6.43;;;5.20;;
23802;SDS011;12082;51.786;6.018;2024-02-14T12:27:57;5.23;;;4.73;;
23802;SDS011;12082;51.786;6.018;2024-02-14T12:30:33;6.83;;;5.30;;
23802;SDS011;12082;51.786;6.018;2024-02-14T12:33:12;6.30;;;5.23;;
23802;SDS011;12082;51.786;6.018;2024-02-14T12:35:45;5.23;;;4.37;;
23802;SDS011;12082;51.786;6.018;2024-02-14T12:38:14;5.17;;;4.43;;
23802;SDS011;12082;51.786;6.018;2024-02-14T12:40:41;5.00;;;4.27;;
23802;SDS011;12082;51.786;6.018;2024-02-14T12:43:08;5.90;;;4.80;;
23802;SDS011;12082;51.786;6.018;2024-02-14T12:45:34;7.10;;;4.77;;
23802;SDS011;12082;51.786;6.018;2024-02-14T12:48:00;8.00;;;4.93;;
23802;SDS011;12082;51.786;6.018;2024-02-14T12:50:26;5.03;;;4.53;;
23802;SDS011;12082;51.786;6.018;2024-02-14T12:52:52;5.47;;;4.70;;
23802;SDS011;12082;51.786;6.018;2024-02-14T12:55:17;7.23;;;5.03;;
23802;SDS011;12082;51.786;6.018;2024-02-14T12:57:44;5.07;;;4.57;;
23802;SDS011;12082;51.786;6.018;2024-02-14T13:00:10;5.20;;;4.67;;
23802;SDS011;12082;51.786;6.018;2024-02-14T13:02:36;6.53;;;5.10;;
23802;SDS011;12082;51.786;6.018;2024-02-14T13:05:03;7.47;;;5.83;;
23802;SDS011;12082;51.786;6.018;2024-02-14T13:07:30;5.50;;;4.73;;
23802;SDS011;12082;51.786;6.018;2024-02-14T13:09:56;5.90;;;5.30;;
23802;SDS011;12082;51.786;6.018;2024-02-14T13:12:22;6.40;;;5.10;;
23802;SDS011;12082;51.786;6.018;2024-02-14T13:14:47;6.67;;;5.63;;
23802;SDS011;12082;51.786;6.018;2024-02-14T13:17:13;7.80;;;5.60;;
23802;SDS011;12082;51.786;6.018;2024-02-14T13:19:39;6.73;;;5.63;;
23802;SDS011;12082;51.786;6.018;2024-02-14T13:22:05;7.70;;;6.17;;
23802;SDS011;12082;51.786;6.018;2024-02-14T13:24:31;6.27;;;5.40;;
23802;SDS011;12082;51.786;6.018;2024-02-14T13:26:56;11.67;;;7.10;;
23802;SDS011;12082;51.786;6.018;2024-02-14T13:29:25;6.67;;;5.83;;
23802;SDS011;12082;51.786;6.018;2024-02-14T13:31:50;8.60;;;6.60;;
23802;SDS011;12082;51.786;6.018;2024-02-14T13:34:17;9.07;;;7.17;;
23802;SDS011;12082;51.786;6.018;2024-02-14T13:36:44;7.60;;;6.80;;
23802;SDS011;12082;51.786;6.018;2024-02-14T13:39:13;8.27;;;6.57;;
23802;SDS011;12082;51.786;6.018;2024-02-14T13:41:39;7.57;;;6.73;;
23802;SDS011;12082;51.786;6.018;2024-02-14T13:44:08;8.93;;;6.73;;
23802;SDS011;12082;51.786;6.018;2024-02-14T13:46:34;11.10;;;7.40;;
23802;SDS011;12082;51.786;6.018;2024-02-14T13:49:00;9.37;;;7.67;;
23802;SDS011;12082;51.786;6.018;2024-02-14T13:51:26;10.43;;;7.90;;
23802;SDS011;12082;51.786;6.018;2024-02-14T13:53:52;11.83;;;7.63;;
23802;SDS011;12082;51.786;6.018;2024-02-14T13:56:18;11.83;;;7.97;;
23802;SDS011;12082;51.786;6.018;2024-02-14T13:58:46;10.00;;;8.50;;
23802;SDS011;12082;51.786;6.018;2024-02-14T14:01:14;12.23;;;8.47;;
23802;SDS011;12082;51.786;6.018;2024-02-14T14:03:40;9.47;;;7.47;;
23802;SDS011;12082;51.786;6.018;2024-02-14T14:06:06;9.50;;;7.47;;
23802;SDS011;12082;51.786;6.018;2024-02-14T14:08:35;10.23;;;7.73;;
23802;SDS011;12082;51.786;6.018;2024-02-14T14:11:04;11.23;;;7.57;;
23802;SDS011;12082;51.786;6.018;2024-02-14T14:13:30;10.23;;;8.17;;
23802;SDS011;12082;51.786;6.018;2024-02-14T14:15:58;10.93;;;7.97;;
23802;SDS011;12082;51.786;6.018;2024-02-14T14:18:24;11.47;;;8.23;;
23802;SDS011;12082;51.786;6.018;2024-02-14T14:20:50;10.30;;;8.40;;
23802;SDS011;12082;51.786;6.018;2024-02-14T14:23:16;11.00;;;8.43;;
23802;SDS011;12082;51.786;6.018;2024-02-14T14:25:41;10.10;;;8.57;;
23802;SDS011;12082;51.786;6.018;2024-02-14T14:28:07;13.40;;;8.90;;
23802;SDS011;12082;51.786;6.018;2024-02-14T14:30:34;12.27;;;8.57;;
23802;SDS011;12082;51.786;6.018;2024-02-14T14:33:00;10.93;;;8.47;;